Time;durP1;ratioP1;P1;durP2;ratioP2;P2;SDS_P1;SDS_P2;PMS_P1;PMS_P2;Temp;Humidity;BMP_temperature;BMP_pressure;BME280_temperature;BME280_humidity;BME280_pressure;Samples;Min_cycle;Max_cycle;Signal;HPM_P1;HPM_P2
2023/08/31 00:02:12;;;;;;;15.30;7.27;;;;;;;;;;5031703;28;20022;-67
2023/08/31 00:04:37;;;;;;;16.67;6.93;;;;;;;;;;5030817;28;20050;-67
2023/08/31 00:07:03;;;;;;;14.07;7.33;;;;;;;;;;5031442;28;20030;-67
2023/08/31 00:09:29;;;;;;;13.70;7.37;;;;;;;;;;5031023;28;20029;-67
2023/08/31 00:11:54;;;;;;;16.40;7.47;;;;;;;;;;5031582;28;20028;-67
2023/08/31 00:14:19;;;;;;;14.67;7.27;;;;;;;;;;5031309;28;20370;-67
2023/08/31 00:16:47;;;;;;;16.83;7.30;;;;;;;;;;5030654;28;20029;-67
2023/08/31 00:19:14;;;;;;;12.93;7.00;;;;;;;;;;5030093;28;20082;-67
2023/08/31 00:21:39;;;;;;;16.33;7.77;;;;;;;;;;5030261;28;20063;-67
2023/08/31 00:24:05;;;;;;;15.63;7.17;;;;;;;;;;5029079;28;20138;-67
2023/08/31 00:26:30;;;;;;;15.60;7.00;;;;;;;;;;5031616;28;20040;-67
2023/08/31 00:28:56;;;;;;;16.00;7.40;;;;;;;;;;5034939;28;20029;-67
2023/08/31 00:31:21;;;;;;;17.47;7.50;;;;;;;;;;5035475;28;20032;-67
2023/08/31 00:33:48;;;;;;;16.30;7.73;;;;;;;;;;5035273;28;20446;-67
2023/08/31 00:36:13;;;;;;;19.40;8.00;;;;;;;;;;5035509;28;20010;-67
2023/08/31 00:38:38;;;;;;;19.00;7.80;;;;;;;;;;5035375;28;20055;-67
2023/08/31 00:41:04;;;;;;;14.77;7.90;;;;;;;;;;5035318;28;20035;-66
2023/08/31 00:43:29;;;;;;;15.37;7.67;;;;;;;;;;5035415;28;20389;-67
2023/08/31 00:45:59;;;;;;;18.90;7.87;;;;;;;;;;5034933;28;20177;-66
2023/08/31 00:48:24;;;;;;;20.93;8.23;;;;;;;;;;5033818;28;20112;-66
2023/08/31 00:50:50;;;;;;;16.60;8.17;;;;;;;;;;5034767;28;20113;-67
2023/08/31 00:53:15;;;;;;;16.03;8.40;;;;;;;;;;5035051;28;20040;-67
2023/08/31 00:55:41;;;;;;;19.10;8.13;;;;;;;;;;5034169;28;20022;-67
2023/08/31 00:58:09;;;;;;;19.33;9.10;;;;;;;;;;5034811;28;20029;-67
2023/08/31 01:03:40;;;;;;;20.17;9.73;;;;;;;;;;5062176;23;20097;-66
2023/08/31 01:06:15;;;;;;;20.33;9.70;;;;;;;;;;5060938;28;20025;-66
2023/08/31 01:08:55;;;;;;;21.67;9.67;;;;;;;;;;5057452;28;20021;-65
2023/08/31 01:11:34;;;;;;;19.13;10.10;;;;;;;;;;5061946;28;20037;-65
2023/08/31 01:14:08;;;;;;;18.13;9.20;;;;;;;;;;5053956;28;20041;-66
2023/08/31 01:16:34;;;;;;;17.30;7.33;;;;;;;;;;5055135;28;20468;-65
2023/08/31 01:19:01;;;;;;;20.47;8.60;;;;;;;;;;5056514;28;20017;-65
2023/08/31 01:21:35;;;;;;;20.07;8.40;;;;;;;;;;5068401;28;20040;-65
2023/08/31 01:24:01;;;;;;;19.60;8.33;;;;;;;;;;5054907;28;20052;-65
2023/08/31 01:26:27;;;;;;;18.53;8.37;;;;;;;;;;5055504;28;20128;-66
2023/08/31 01:28:54;;;;;;;19.77;8.20;;;;;;;;;;5073552;28;20020;-65
2023/08/31 01:31:20;;;;;;;16.63;8.10;;;;;;;;;;5069404;28;20024;-65
2023/08/31 01:33:45;;;;;;;16.00;8.30;;;;;;;;;;5063254;28;20032;-66
2023/08/31 01:36:25;;;;;;;15.10;7.63;;;;;;;;;;5065378;28;20028;-64
2023/08/31 01:38:54;;;;;;;15.77;7.67;;;;;;;;;;5056033;28;20025;-65
2023/08/31 01:41:20;;;;;;;19.97;8.20;;;;;;;;;;5057138;28;20023;-65
2023/08/31 01:43:47;;;;;;;19.57;7.83;;;;;;;;;;5066855;28;20028;-66
2023/08/31 01:46:12;;;;;;;16.90;7.43;;;;;;;;;;5059794;28;20024;-65
2023/08/31 01:48:38;;;;;;;13.53;6.37;;;;;;;;;;5067592;28;20032;-65
2023/08/31 01:51:05;;;;;;;15.00;7.67;;;;;;;;;;5054409;28;20495;-66
2023/08/31 01:53:30;;;;;;;16.53;7.03;;;;;;;;;;5061326;28;20166;-65
2023/08/31 01:55:55;;;;;;;25.50;8.80;;;;;;;;;;5056780;28;20495;-65
2023/08/31 01:58:22;;;;;;;20.47;7.03;;;;;;;;;;5070898;28;20029;-65
2023/08/31 02:00:48;;;;;;;15.97;7.50;;;;;;;;;;5067613;28;20066;-65
2023/08/31 02:03:13;;;;;;;15.37;7.10;;;;;;;;;;5053151;28;20080;-65
2023/08/31 02:05:38;;;;;;;18.87;7.53;;;;;;;;;;5061706;28;20063;-65
2023/08/31 02:08:03;;;;;;;20.53;8.23;;;;;;;;;;5055574;28;20052;-65
2023/08/31 02:10:29;;;;;;;18.67;8.40;;;;;;;;;;5058362;28;20389;-66
2023/08/31 02:12:55;;;;;;;16.87;8.13;;;;;;;;;;5073077;28;20487;-71
2023/08/31 02:15:20;;;;;;;18.27;8.87;;;;;;;;;;5055827;28;20036;-69
2023/08/31 02:17:45;;;;;;;17.80;9.47;;;;;;;;;;5053848;28;20017;-70
2023/08/31 02:20:10;;;;;;;22.23;9.60;;;;;;;;;;5052417;28;20025;-70
2023/08/31 02:22:36;;;;;;;20.27;9.93;;;;;;;;;;5053656;28;20033;-71
2023/08/31 02:25:01;;;;;;;21.97;9.70;;;;;;;;;;5052892;28;20048;-70
2023/08/31 02:27:27;;;;;;;18.00;9.53;;;;;;;;;;5058910;28;20469;-71
2023/08/31 02:29:52;;;;;;;25.43;10.13;;;;;;;;;;5067316;28;20036;-70
2023/08/31 02:32:17;;;;;;;20.50;8.97;;;;;;;;;;5052913;28;20111;-69
2023/08/31 02:34:42;;;;;;;25.57;9.87;;;;;;;;;;5055294;28;20027;-70
2023/08/31 02:37:08;;;;;;;23.30;9.70;;;;;;;;;;5053529;28;20021;-69
2023/08/31 02:39:33;;;;;;;24.23;10.70;;;;;;;;;;5053217;28;20094;-70
2023/08/31 02:41:58;;;;;;;24.63;10.27;;;;;;;;;;5060065;28;20126;-69
2023/08/31 02:44:23;;;;;;;19.40;10.10;;;;;;;;;;5052468;28;20024;-70
2023/08/31 02:46:49;;;;;;;21.17;9.83;;;;;;;;;;5054031;28;20020;-70
2023/08/31 02:49:14;;;;;;;21.23;10.23;;;;;;;;;;5053222;28;20036;-70
2023/08/31 02:51:39;;;;;;;22.77;10.87;;;;;;;;;;5053905;28;20032;-70
2023/08/31 02:54:04;;;;;;;24.00;11.87;;;;;;;;;;5059309;28;20021;-71
2023/08/31 02:56:29;;;;;;;25.40;11.40;;;;;;;;;;5052867;28;20060;-70
2023/08/31 02:58:55;;;;;;;25.60;11.13;;;;;;;;;;5052905;28;20025;-70
2023/08/31 03:01:20;;;;;;;20.57;9.97;;;;;;;;;;5058679;28;20103;-70
2023/08/31 03:03:46;;;;;;;27.87;11.33;;;;;;;;;;5055987;28;20089;-70
2023/08/31 03:06:11;;;;;;;22.43;9.37;;;;;;;;;;5052082;28;20032;-71
2023/08/31 03:08:37;;;;;;;20.13;9.67;;;;;;;;;;5053309;28;20037;-71
2023/08/31 03:11:02;;;;;;;22.30;10.27;;;;;;;;;;5052894;28;20024;-70
2023/08/31 03:13:28;;;;;;;20.77;10.00;;;;;;;;;;5053106;28;20025;-70
2023/08/31 03:15:53;;;;;;;18.20;8.73;;;;;;;;;;5052835;28;20009;-70
2023/08/31 03:18:18;;;;;;;17.13;9.00;;;;;;;;;;5053146;28;20499;-70
2023/08/31 03:20:43;;;;;;;25.77;10.10;;;;;;;;;;5052478;28;20024;-70
2023/08/31 03:23:10;;;;;;;20.33;9.10;;;;;;;;;;5062216;28;20031;-70
2023/08/31 03:25:36;;;;;;;18.20;8.87;;;;;;;;;;5071301;28;20488;-71
2023/08/31 03:28:01;;;;;;;23.10;9.60;;;;;;;;;;5054558;28;20017;-70
2023/08/31 03:30:26;;;;;;;20.57;10.87;;;;;;;;;;5056210;28;20545;-70
2023/08/31 03:32:51;;;;;;;26.57;10.67;;;;;;;;;;5052464;28;20368;-70
2023/08/31 03:35:17;;;;;;;22.47;10.20;;;;;;;;;;5052581;28;20074;-71
2023/08/31 03:37:42;;;;;;;27.23;10.93;;;;;;;;;;5049929;28;20457;-71
2023/08/31 03:40:07;;;;;;;22.43;11.37;;;;;;;;;;5052529;28;20170;-70
2023/08/31 03:42:33;;;;;;;22.17;10.83;;;;;;;;;;5051831;28;20032;-69
2023/08/31 03:44:59;;;;;;;21.87;10.60;;;;;;;;;;5051174;28;20025;-70
2023/08/31 03:47:24;;;;;;;23.20;10.80;;;;;;;;;;5048234;28;20048;-70
2023/08/31 03:49:50;;;;;;;20.50;9.33;;;;;;;;;;5052250;28;20079;-69
2023/08/31 03:52:15;;;;;;;22.43;10.83;;;;;;;;;;5052216;28;20016;-70
2023/08/31 03:54:40;;;;;;;18.73;10.37;;;;;;;;;;5052698;28;20020;-70
2023/08/31 03:57:05;;;;;;;20.97;10.47;;;;;;;;;;5052512;28;20017;-70
2023/08/31 03:59:30;;;;;;;19.20;10.47;;;;;;;;;;5052539;28;20013;-71
2023/08/31 04:01:56;;;;;;;27.00;11.40;;;;;;;;;;5062838;28;20085;-70
2023/08/31 04:04:21;;;;;;;20.57;10.43;;;;;;;;;;5055574;28;20041;-70
2023/08/31 04:06:46;;;;;;;17.97;10.10;;;;;;;;;;5056376;28;20021;-70
2023/08/31 04:09:12;;;;;;;20.33;10.07;;;;;;;;;;5056336;28;20020;-69
2023/08/31 04:11:37;;;;;;;18.00;9.80;;;;;;;;;;5054889;28;20017;-70
2023/08/31 04:14:02;;;;;;;23.80;10.73;;;;;;;;;;5056080;28;20013;-70
2023/08/31 04:16:28;;;;;;;24.93;10.50;;;;;;;;;;5055340;28;20108;-71
2023/08/31 04:18:54;;;;;;;23.43;10.07;;;;;;;;;;5055734;28;20028;-70
2023/08/31 04:21:19;;;;;;;23.20;10.43;;;;;;;;;;5057214;28;20051;-71
2023/08/31 04:23:45;;;;;;;19.40;9.77;;;;;;;;;;5067637;28;20484;-70
2023/08/31 04:26:12;;;;;;;20.23;9.23;;;;;;;;;;5058539;28;20358;-69
2023/08/31 04:28:37;;;;;;;20.60;9.27;;;;;;;;;;5055919;28;20029;-71
2023/08/31 04:31:04;;;;;;;23.17;9.60;;;;;;;;;;5056480;28;20017;-70
2023/08/31 04:33:29;;;;;;;21.10;9.97;;;;;;;;;;5055104;28;20078;-69
2023/08/31 04:35:55;;;;;;;19.13;9.30;;;;;;;;;;5055557;28;20013;-69
2023/08/31 04:38:20;;;;;;;17.77;9.27;;;;;;;;;;5055879;28;20021;-69
2023/08/31 04:40:45;;;;;;;18.60;9.83;;;;;;;;;;5063632;28;20028;-69
2023/08/31 04:43:10;;;;;;;18.77;10.27;;;;;;;;;;5065889;28;20027;-69
2023/08/31 04:45:36;;;;;;;18.63;10.20;;;;;;;;;;5055542;28;20078;-69
2023/08/31 04:48:01;;;;;;;22.10;10.50;;;;;;;;;;5063317;28;20415;-69
2023/08/31 04:50:26;;;;;;;21.80;10.23;;;;;;;;;;5074546;28;20020;-69
2023/08/31 04:52:51;;;;;;;22.33;10.70;;;;;;;;;;5074199;28;20100;-68
2023/08/31 04:55:16;;;;;;;18.17;9.40;;;;;;;;;;5073592;28;20017;-69
2023/08/31 04:57:42;;;;;;;16.17;9.53;;;;;;;;;;5054346;28;20024;-69
2023/08/31 05:00:11;;;;;;;19.43;9.87;;;;;;;;;;5063314;28;20537;-69
2023/08/31 05:02:37;;;;;;;13.80;8.90;;;;;;;;;;5055162;28;20055;-69
2023/08/31 05:05:03;;;;;;;18.17;9.60;;;;;;;;;;5062348;28;20020;-69
2023/08/31 05:07:28;;;;;;;18.00;9.70;;;;;;;;;;5053933;28;20105;-69
2023/08/31 05:09:53;;;;;;;14.00;8.90;;;;;;;;;;5058419;28;20052;-69
2023/08/31 05:12:18;;;;;;;15.80;9.43;;;;;;;;;;5055022;28;20024;-69
2023/08/31 05:14:44;;;;;;;16.80;9.00;;;;;;;;;;5052355;28;20013;-69
2023/08/31 05:17:09;;;;;;;15.73;9.07;;;;;;;;;;5054803;28;20013;-69
2023/08/31 05:19:34;;;;;;;16.47;8.93;;;;;;;;;;5052974;28;20080;-69
2023/08/31 05:21:59;;;;;;;14.67;9.40;;;;;;;;;;5055089;28;20461;-69
2023/08/31 05:24:24;;;;;;;17.77;9.80;;;;;;;;;;5054743;28;20519;-69
2023/08/31 05:26:50;;;;;;;14.50;10.00;;;;;;;;;;5059253;28;20503;-69
2023/08/31 05:29:16;;;;;;;15.03;8.90;;;;;;;;;;5072655;28;20503;-68
2023/08/31 05:31:41;;;;;;;16.23;9.40;;;;;;;;;;5072735;28;20546;-69
2023/08/31 05:34:06;;;;;;;16.87;10.13;;;;;;;;;;5073491;28;20013;-68
2023/08/31 05:36:32;;;;;;;15.17;9.07;;;;;;;;;;5073745;28;20017;-69
2023/08/31 05:38:57;;;;;;;16.57;10.53;;;;;;;;;;5073377;28;20052;-68
2023/08/31 05:41:22;;;;;;;16.30;10.00;;;;;;;;;;5073102;28;20361;-68
2023/08/31 05:43:48;;;;;;;16.43;9.20;;;;;;;;;;5073378;28;20051;-70
2023/08/31 05:46:13;;;;;;;15.17;9.87;;;;;;;;;;5073152;28;20025;-68
2023/08/31 05:48:38;;;;;;;17.40;10.10;;;;;;;;;;5073269;28;20096;-69
2023/08/31 05:51:04;;;;;;;15.07;9.30;;;;;;;;;;5072952;28;20017;-70
2023/08/31 05:53:33;;;;;;;16.73;10.10;;;;;;;;;;5050510;28;20021;-70
2023/08/31 05:56:04;;;;;;;19.90;11.13;;;;;;;;;;5054469;28;20108;-69
2023/08/31 05:58:33;;;;;;;15.98;10.23;;;;;;;;;;5053802;28;20461;-69
2023/08/31 06:00:59;;;;;;;17.00;10.03;;;;;;;;;;5070258;28;20423;-71
2023/08/31 06:03:24;;;;;;;11.17;7.70;;;;;;;;;;5065491;28;20044;-70
2023/08/31 06:05:50;;;;;;;11.03;7.07;;;;;;;;;;5054006;28;20025;-70
2023/08/31 06:08:15;;;;;;;10.85;6.93;;;;;;;;;;5053897;28;20017;-69
2023/08/31 06:10:40;;;;;;;13.95;6.60;;;;;;;;;;5054002;28;20031;-70
2023/08/31 06:13:06;;;;;;;10.40;6.90;;;;;;;;;;5053911;28;20108;-70
2023/08/31 06:15:31;;;;;;;10.80;7.57;;;;;;;;;;5054012;28;20017;-71
2023/08/31 06:17:56;;;;;;;12.05;7.03;;;;;;;;;;5054082;28;20024;-70
2023/08/31 06:20:22;;;;;;;12.25;7.53;;;;;;;;;;5053719;28;20013;-71
2023/08/31 06:22:47;;;;;;;11.25;7.63;;;;;;;;;;5053702;28;20028;-71
2023/08/31 06:25:15;;;;;;;11.60;7.65;;;;;;;;;;5053339;28;20013;-69
2023/08/31 06:27:42;;;;;;;15.82;8.20;;;;;;;;;;5053687;28;20150;-70
2023/08/31 06:30:08;;;;;;;13.05;8.60;;;;;;;;;;5053481;28;20039;-71
2023/08/31 06:32:33;;;;;;;12.00;7.80;;;;;;;;;;5053568;28;20107;-71
2023/08/31 06:34:59;;;;;;;15.02;8.40;;;;;;;;;;5053882;28;20048;-69
2023/08/31 06:37:24;;;;;;;11.85;7.55;;;;;;;;;;5049363;28;20112;-70
2023/08/31 06:39:49;;;;;;;10.02;6.45;;;;;;;;;;5053365;28;20021;-70
2023/08/31 06:42:14;;;;;;;10.55;6.05;;;;;;;;;;5052972;28;20377;-70
2023/08/31 06:44:39;;;;;;;13.02;6.50;;;;;;;;;;5055958;28;20024;-69
2023/08/31 06:47:05;;;;;;;12.15;7.20;;;;;;;;;;5053619;28;20047;-69
2023/08/31 06:49:32;;;;;;;13.45;7.47;;;;;;;;;;5053312;28;20404;-69
2023/08/31 06:51:58;;;;;;;14.13;8.15;;;;;;;;;;5053195;28;20020;-69
2023/08/31 06:54:23;;;;;;;12.43;8.82;;;;;;;;;;5053069;28;20199;-65
2023/08/31 06:56:48;;;;;;;14.63;10.13;;;;;;;;;;5053035;28;20066;-65
2023/08/31 06:59:13;;;;;;;17.80;10.23;;;;;;;;;;5053040;28;20021;-65
2023/08/31 07:01:38;;;;;;;22.87;11.13;;;;;;;;;;5052950;28;20016;-65
2023/08/31 07:04:04;;;;;;;16.73;10.77;;;;;;;;;;5061150;28;20047;-65
2023/08/31 07:06:29;;;;;;;18.83;11.37;;;;;;;;;;5071755;28;20013;-66
2023/08/31 07:08:54;;;;;;;18.87;12.23;;;;;;;;;;5071575;28;20020;-65
2023/08/31 07:11:20;;;;;;;22.33;12.47;;;;;;;;;;5054816;28;20028;-65
2023/08/31 07:13:45;;;;;;;20.37;13.53;;;;;;;;;;5052748;28;20028;-67
2023/08/31 07:16:10;;;;;;;21.03;13.37;;;;;;;;;;5053112;28;20376;-66
2023/08/31 07:18:36;;;;;;;17.10;11.37;;;;;;;;;;5052755;28;20009;-66
2023/08/31 07:21:01;;;;;;;21.47;13.13;;;;;;;;;;5053065;28;20037;-65
2023/08/31 07:23:27;;;;;;;19.40;12.10;;;;;;;;;;5052588;28;20534;-65
2023/08/31 07:25:52;;;;;;;20.00;12.90;;;;;;;;;;5052984;28;20039;-65
2023/08/31 07:28:17;;;;;;;17.37;11.33;;;;;;;;;;5052560;28;20377;-65
2023/08/31 07:30:43;;;;;;;20.17;11.40;;;;;;;;;;5052453;28;20092;-65
2023/08/31 07:33:08;;;;;;;17.60;10.63;;;;;;;;;;5052433;28;20021;-66
2023/08/31 07:35:33;;;;;;;15.63;8.82;;;;;;;;;;5052568;28;20013;-65
2023/08/31 07:37:58;;;;;;;14.40;9.35;;;;;;;;;;5051636;28;20017;-65
2023/08/31 07:40:25;;;;;;;13.75;9.35;;;;;;;;;;5052481;28;20365;-65
2023/08/31 07:42:51;;;;;;;13.57;9.00;;;;;;;;;;5052384;28;20028;-65
2023/08/31 07:45:16;;;;;;;14.18;8.70;;;;;;;;;;5052376;28;20021;-66
2023/08/31 07:47:41;;;;;;;13.32;9.45;;;;;;;;;;5052372;28;20027;-66
2023/08/31 07:50:07;;;;;;;13.05;9.00;;;;;;;;;;5052347;28;20377;-65
2023/08/31 07:52:32;;;;;;;14.05;8.82;;;;;;;;;;5052188;28;20017;-65
2023/08/31 07:54:57;;;;;;;15.68;9.35;;;;;;;;;;5051928;28;20041;-65
2023/08/31 07:57:22;;;;;;;13.25;8.13;;;;;;;;;;5052400;28;20037;-65
2023/08/31 07:59:48;;;;;;;13.23;7.80;;;;;;;;;;5060685;28;20017;-66
2023/08/31 08:02:13;;;;;;;13.00;8.18;;;;;;;;;;5071292;28;20111;-65
2023/08/31 08:04:38;;;;;;;12.55;7.65;;;;;;;;;;5051341;28;20110;-65
2023/08/31 08:07:03;;;;;;;11.75;7.47;;;;;;;;;;5052491;28;20062;-65
2023/08/31 08:09:29;;;;;;;13.18;7.57;;;;;;;;;;5052021;28;20477;-65
2023/08/31 08:11:55;;;;;;;14.55;6.70;;;;;;;;;;5053178;28;20047;-65
2023/08/31 08:14:20;;;;;;;9.38;5.50;;;;;;;;;;5052496;28;20017;-65
2023/08/31 08:16:45;;;;;;;7.50;4.70;;;;;;;;;;5052221;28;20051;-67
2023/08/31 08:19:11;;;;;;;9.43;5.13;;;;;;;;;;5052317;28;20005;-64
2023/08/31 08:21:36;;;;;;;7.93;5.07;;;;;;;;;;5051979;28;20025;-65
2023/08/31 08:24:01;;;;;;;7.13;4.22;;;;;;;;;;5050824;28;20491;-66
2023/08/31 08:26:27;;;;;;;10.43;4.97;;;;;;;;;;5051963;28;20489;-64
2023/08/31 08:28:52;;;;;;;7.43;3.92;;;;;;;;;;5051831;28;20074;-65
2023/08/31 08:31:17;;;;;;;7.88;4.07;;;;;;;;;;5051934;28;20019;-66
2023/08/31 08:33:42;;;;;;;9.63;4.55;;;;;;;;;;5051730;28;20029;-64
2023/08/31 08:36:08;;;;;;;8.32;3.80;;;;;;;;;;5053248;28;20017;-66
2023/08/31 08:38:33;;;;;;;7.45;3.58;;;;;;;;;;5061991;28;20025;-65
2023/08/31 08:41:03;;;;;;;7.90;3.67;;;;;;;;;;5052057;28;20260;-66
2023/08/31 08:43:29;;;;;;;6.95;3.55;;;;;;;;;;5051885;28;20013;-66
2023/08/31 08:45:56;;;;;;;5.88;2.97;;;;;;;;;;5061336;28;20032;-64
2023/08/31 08:48:22;;;;;;;8.52;2.50;;;;;;;;;;5072264;28;20070;-65
2023/08/31 08:50:48;;;;;;;7.13;2.95;;;;;;;;;;5060021;28;20540;-65
2023/08/31 08:53:15;;;;;;;5.10;2.58;;;;;;;;;;5055474;28;20016;-65
2023/08/31 08:55:40;;;;;;;4.18;2.30;;;;;;;;;;5055812;28;20013;-65
2023/08/31 08:58:06;;;;;;;5.40;2.35;;;;;;;;;;5055371;28;20492;-66
2023/08/31 09:00:32;;;;;;;7.22;2.47;;;;;;;;;;5055281;28;20013;-64
2023/08/31 09:02:57;;;;;;;4.60;2.30;;;;;;;;;;5054876;28;20135;-66
2023/08/31 09:05:23;;;;;;;7.32;2.40;;;;;;;;;;5055266;28;20078;-65
2023/08/31 09:08:00;;;;;;;6.35;2.30;;;;;;;;;;5055297;28;20017;-66
2023/08/31 09:10:32;;;;;;;7.07;1.80;;;;;;;;;;5055474;28;20099;-66
2023/08/31 09:12:59;;;;;;;4.13;1.50;;;;;;;;;;5054264;28;20163;-68
2023/08/31 09:15:25;;;;;;;4.45;1.77;;;;;;;;;;5055274;28;20092;-67
2023/08/31 09:17:51;;;;;;;5.97;1.70;;;;;;;;;;5055271;28;20516;-66
2023/08/31 09:20:16;;;;;;;5.65;1.70;;;;;;;;;;5055322;28;20017;-67
2023/08/31 09:22:50;;;;;;;5.38;1.92;;;;;;;;;;5055216;28;20017;-66
2023/08/31 09:25:15;;;;;;;5.72;1.90;;;;;;;;;;5055185;28;20101;-66
2023/08/31 09:27:44;;;;;;;4.57;1.65;;;;;;;;;;5055040;28;20097;-66
2023/08/31 09:30:10;;;;;;;6.38;1.75;;;;;;;;;;5055127;28;20029;-67
2023/08/31 09:32:36;;;;;;;6.40;2.05;;;;;;;;;;5054721;28;20017;-65
2023/08/31 09:35:03;;;;;;;6.28;2.00;;;;;;;;;;5054621;28;20024;-66
2023/08/31 09:37:28;;;;;;;3.70;1.30;;;;;;;;;;5054998;28;20104;-66
2023/08/31 09:39:54;;;;;;;4.55;1.40;;;;;;;;;;5054602;28;20410;-65
2023/08/31 09:42:20;;;;;;;7.72;1.50;;;;;;;;;;5054628;28;20020;-66
2023/08/31 09:44:46;;;;;;;5.85;1.65;;;;;;;;;;5054873;28;20071;-65
2023/08/31 09:47:13;;;;;;;4.93;1.65;;;;;;;;;;5054405;28;20021;-67
2023/08/31 09:49:38;;;;;;;5.55;1.90;;;;;;;;;;5050717;28;20028;-65
2023/08/31 09:52:05;;;;;;;3.17;1.17;;;;;;;;;;5054382;28;20385;-65
2023/08/31 09:54:32;;;;;;;4.75;1.27;;;;;;;;;;5054666;28;20036;-66
2023/08/31 09:56:59;;;;;;;4.10;0.90;;;;;;;;;;5053430;28;20135;-66
2023/08/31 09:59:25;;;;;;;2.72;0.70;;;;;;;;;;5056155;28;20032;-66
2023/08/31 10:01:50;;;;;;;5.65;1.05;;;;;;;;;;5067078;28;20017;-66
2023/08/31 10:04:16;;;;;;;5.20;1.08;;;;;;;;;;5053973;28;20049;-66
2023/08/31 10:06:42;;;;;;;3.33;1.00;;;;;;;;;;5054346;28;20035;-66
2023/08/31 10:09:11;;;;;;;4.18;1.10;;;;;;;;;;5053415;28;20063;-66
2023/08/31 10:11:37;;;;;;;3.83;0.90;;;;;;;;;;5054271;28;20500;-66
2023/08/31 10:14:03;;;;;;;3.03;0.82;;;;;;;;;;5053879;28;20044;-65
2023/08/31 10:16:29;;;;;;;5.03;0.88;;;;;;;;;;5068732;28;20055;-66
2023/08/31 10:18:55;;;;;;;2.63;0.70;;;;;;;;;;5065024;28;20045;-67
2023/08/31 10:21:21;;;;;;;3.03;0.70;;;;;;;;;;5072697;28;20468;-68
2023/08/31 10:23:47;;;;;;;2.92;0.77;;;;;;;;;;5072880;28;20020;-70
2023/08/31 10:26:22;;;;;;;3.42;0.85;;;;;;;;;;5072332;28;20021;-70
2023/08/31 10:28:47;;;;;;;4.03;0.57;;;;;;;;;;5072375;28;20028;-71
2023/08/31 10:31:19;;;;;;;2.55;0.68;;;;;;;;;;5072181;28;20376;-70
2023/08/31 10:34:00;;;;;;;2.65;0.70;;;;;;;;;;5069621;28;20071;-70
2023/08/31 10:36:39;;;;;;;0.97;0.50;;;;;;;;;;5051907;28;20024;-70
2023/08/31 10:39:17;;;;;;;2.97;0.77;;;;;;;;;;5053416;28;20294;-71
2023/08/31 10:41:51;;;;;;;3.67;0.60;;;;;;;;;;5053331;28;20021;-71
2023/08/31 10:44:20;;;;;;;2.85;0.82;;;;;;;;;;5053265;28;20384;-70
2023/08/31 10:46:46;;;;;;;5.75;0.90;;;;;;;;;;5070359;28;20021;-71
2023/08/31 10:49:11;;;;;;;2.05;0.60;;;;;;;;;;5072047;28;20028;-70
2023/08/31 10:51:44;;;;;;;2.03;0.65;;;;;;;;;;5071964;28;20096;-69
2023/08/31 10:54:25;;;;;;;2.85;0.50;;;;;;;;;;5071784;28;20020;-70
2023/08/31 10:56:54;;;;;;;3.70;1.40;;;;;;;;;;5067569;28;20066;-69
2023/08/31 10:59:20;;;;;;;2.95;0.50;;;;;;;;;;5067973;28;20384;-69
2023/08/31 11:02:04;;;;;;;3.42;0.70;;;;;;;;;;5052900;28;20047;-69
2023/08/31 11:04:30;;;;;;;1.85;0.50;;;;;;;;;;5052508;28;20110;-68
2023/08/31 11:07:17;;;;;;;2.58;0.80;;;;;;;;;;5053292;28;20025;-68
2023/08/31 11:09:44;;;;;;;4.68;1.10;;;;;;;;;;5052800;28;20028;-68
2023/08/31 11:12:09;;;;;;;2.42;0.77;;;;;;;;;;5052119;28;20061;-68
2023/08/31 11:14:35;;;;;;;3.45;1.00;;;;;;;;;;5052596;28;20044;-69
2023/08/31 11:17:01;;;;;;;3.15;0.93;;;;;;;;;;5052691;28;20025;-69
2023/08/31 11:19:27;;;;;;;2.22;0.60;;;;;;;;;;5052715;28;20021;-69
2023/08/31 11:21:53;;;;;;;3.25;0.80;;;;;;;;;;5052873;28;20020;-69
2023/08/31 11:24:21;;;;;;;2.70;0.60;;;;;;;;;;5053034;28;20017;-69
2023/08/31 11:26:47;;;;;;;2.78;0.70;;;;;;;;;;5052913;28;20017;-69
2023/08/31 11:29:12;;;;;;;5.15;0.73;;;;;;;;;;5053300;28;20024;-70
2023/08/31 11:31:41;;;;;;;5.32;0.80;;;;;;;;;;5052874;28;20431;-70
2023/08/31 11:34:07;;;;;;;2.17;0.63;;;;;;;;;;5052473;28;20024;-66
2023/08/31 11:36:32;;;;;;;3.88;0.90;;;;;;;;;;5052541;28;20036;-67
2023/08/31 11:38:58;;;;;;;4.25;0.88;;;;;;;;;;5052755;28;20025;-66
2023/08/31 11:41:23;;;;;;;3.33;0.95;;;;;;;;;;5056521;28;20024;-67
2023/08/31 11:43:49;;;;;;;3.92;0.90;;;;;;;;;;5048493;28;20051;-65
2023/08/31 11:46:15;;;;;;;0.90;0.47;;;;;;;;;;5052593;28;20017;-72
2023/08/31 11:48:40;;;;;;;6.22;0.80;;;;;;;;;;5052776;28;20052;-69
2023/08/31 11:51:06;;;;;;;2.15;0.70;;;;;;;;;;5052570;28;20026;-71
2023/08/31 11:53:31;;;;;;;3.28;0.60;;;;;;;;;;5052015;28;20445;-70
2023/08/31 11:55:56;;;;;;;1.75;0.60;;;;;;;;;;5052255;28;20381;-70
2023/08/31 11:58:24;;;;;;;2.65;0.40;;;;;;;;;;5052263;28;20041;-71
2023/08/31 12:00:56;;;;;;;2.35;0.60;;;;;;;;;;5052340;28;20025;-70
2023/08/31 12:03:22;;;;;;;5.15;0.98;;;;;;;;;;5056937;28;20053;-71
2023/08/31 12:05:48;;;;;;;3.55;0.60;;;;;;;;;;5052381;28;20044;-71
2023/08/31 12:08:13;;;;;;;3.03;0.80;;;;;;;;;;5052104;28;20032;-71
2023/08/31 12:10:41;;;;;;;1.50;0.70;;;;;;;;;;5052515;28;20032;-70
2023/08/31 12:13:13;;;;;;;2.08;0.55;;;;;;;;;;5052081;28;20044;-70
2023/08/31 12:15:38;;;;;;;;;;;;;;;;;;5050977;28;20070;-71
2023/08/31 12:18:10;;;;;;;0.83;0.40;;;;;;;;;;5052220;28;19909;-71
2023/08/31 12:20:42;;;;;;;2.45;0.60;;;;;;;;;;5051990;28;20251;-70
2023/08/31 12:23:09;;;;;;;1.98;0.40;;;;;;;;;;5053384;28;20021;-71
2023/08/31 12:25:34;;;;;;;3.05;0.50;;;;;;;;;;5055973;28;20031;-71
2023/08/31 12:28:00;;;;;;;3.83;0.70;;;;;;;;;;5054797;28;20029;-71
2023/08/31 12:30:25;;;;;;;1.77;0.70;;;;;;;;;;5057312;28;20104;-71
2023/08/31 12:32:52;;;;;;;2.33;0.80;;;;;;;;;;5055833;28;20078;-72
2023/08/31 12:35:17;;;;;;;3.97;0.70;;;;;;;;;;5055756;28;20019;-70
2023/08/31 12:37:42;;;;;;;2.58;0.70;;;;;;;;;;5055745;28;20088;-70
2023/08/31 12:40:09;;;;;;;1.15;0.52;;;;;;;;;;5055622;28;20074;-71
2023/08/31 12:42:35;;;;;;;2.83;0.90;;;;;;;;;;5055942;28;20484;-71
2023/08/31 12:45:00;;;;;;;1.70;0.60;;;;;;;;;;5056054;28;20025;-70
2023/08/31 12:47:25;;;;;;;1.98;0.63;;;;;;;;;;5055815;28;20433;-70
2023/08/31 12:49:50;;;;;;;1.70;0.60;;;;;;;;;;5055605;28;20372;-70
2023/08/31 12:52:16;;;;;;;3.38;0.50;;;;;;;;;;5055339;28;20033;-72
2023/08/31 12:54:41;;;;;;;1.95;0.35;;;;;;;;;;5062001;28;20026;-70
2023/08/31 12:57:07;;;;;;;1.98;0.55;;;;;;;;;;5068701;28;20013;-71
2023/08/31 12:59:32;;;;;;;2.45;0.60;;;;;;;;;;5055485;28;20021;-72
2023/08/31 13:01:57;;;;;;;2.33;0.68;;;;;;;;;;5053780;28;20055;-71
2023/08/31 13:04:22;;;;;;;2.55;0.70;;;;;;;;;;5055146;28;20052;-67
2023/08/31 13:06:48;;;;;;;2.17;0.60;;;;;;;;;;5055239;28;20377;-67
2023/08/31 13:09:13;;;;;;;3.42;0.80;;;;;;;;;;5055524;28;20414;-67
2023/08/31 13:11:38;;;;;;;3.60;0.70;;;;;;;;;;5054697;28;20526;-67
2023/08/31 13:14:03;;;;;;;2.15;0.60;;;;;;;;;;5054903;28;20067;-67
2023/08/31 13:16:29;;;;;;;1.88;0.70;;;;;;;;;;5054977;28;20013;-67
2023/08/31 13:18:54;;;;;;;2.38;0.73;;;;;;;;;;5055324;28;20368;-67
2023/08/31 13:21:19;;;;;;;2.28;0.65;;;;;;;;;;5054885;28;20513;-67
2023/08/31 13:23:44;;;;;;;2.65;0.77;;;;;;;;;;5055188;28;20040;-67
2023/08/31 13:26:10;;;;;;;4.45;0.88;;;;;;;;;;5053351;28;20059;-67
2023/08/31 13:28:35;;;;;;;2.97;0.63;;;;;;;;;;5055014;28;20059;-66
2023/08/31 13:31:00;;;;;;;3.15;0.90;;;;;;;;;;5054669;28;20020;-67
2023/08/31 13:33:28;;;;;;;3.13;0.77;;;;;;;;;;5054791;28;20044;-66
2023/08/31 13:35:53;;;;;;;4.93;0.82;;;;;;;;;;5053619;28;20013;-66
2023/08/31 13:38:19;;;;;;;2.63;0.75;;;;;;;;;;5054988;28;20047;-67
2023/08/31 13:40:44;;;;;;;2.13;0.70;;;;;;;;;;5054534;28;20097;-67
2023/08/31 13:43:09;;;;;;;3.03;0.90;;;;;;;;;;5073456;28;20012;-66
2023/08/31 13:45:34;;;;;;;4.38;1.05;;;;;;;;;;5055610;28;20028;-66
2023/08/31 13:48:00;;;;;;;4.28;0.80;;;;;;;;;;5054477;28;20025;-67
2023/08/31 13:50:26;;;;;;;2.47;0.77;;;;;;;;;;5054880;28;20029;-66
2023/08/31 13:52:51;;;;;;;4.25;0.93;;;;;;;;;;5054507;28;20033;-66
2023/08/31 13:55:16;;;;;;;3.97;1.00;;;;;;;;;;5054362;28;20017;-68
2023/08/31 13:57:42;;;;;;;4.72;0.90;;;;;;;;;;5054401;28;20048;-67
2023/08/31 14:00:09;;;;;;;2.97;0.80;;;;;;;;;;5055742;28;20036;-67
2023/08/31 14:02:35;;;;;;;3.05;0.70;;;;;;;;;;5066599;28;20021;-68
2023/08/31 14:05:01;;;;;;;2.83;0.88;;;;;;;;;;5054096;28;20059;-66
2023/08/31 14:07:26;;;;;;;3.92;0.90;;;;;;;;;;5058386;28;20029;-66
2023/08/31 14:09:52;;;;;;;6.15;0.90;;;;;;;;;;5054361;28;20469;-67
2023/08/31 14:12:17;;;;;;;2.75;0.90;;;;;;;;;;5054051;28;20369;-68
2023/08/31 14:14:43;;;;;;;2.92;0.80;;;;;;;;;;5054000;28;20503;-66
2023/08/31 14:17:08;;;;;;;4.32;0.70;;;;;;;;;;5054191;28;20604;-67
2023/08/31 14:19:35;;;;;;;6.18;1.00;;;;;;;;;;5054011;28;20116;-66
2023/08/31 14:22:01;;;;;;;4.07;1.00;;;;;;;;;;5053961;28;20101;-66
2023/08/31 14:24:26;;;;;;;4.82;1.02;;;;;;;;;;5054222;28;20431;-66
2023/08/31 14:26:51;;;;;;;4.32;1.00;;;;;;;;;;5053862;28;20048;-67
2023/08/31 14:29:17;;;;;;;2.40;0.47;;;;;;;;;;5053511;28;20017;-66
2023/08/31 14:31:42;;;;;;;1.73;0.60;;;;;;;;;;5067467;28;20112;-66